createdAt,value
2018-12-19T00:01:17.293Z,29.20
2018-12-19T00:03:25.440Z,29.53
2018-12-19T00:05:33.230Z,29.58
2018-12-19T00:07:41.666Z,28.95
2018-12-19T00:09:50.693Z,29.19
2018-12-19T00:11:59.995Z,28.84
2018-12-19T00:14:07.150Z,28.66
2018-12-19T00:16:14.922Z,29.15
2018-12-19T00:18:26.123Z,29.39
2018-12-19T00:20:45.557Z,29.37
2018-12-19T00:22:57.983Z,29.80
2018-12-19T00:25:06.497Z,29.54
2018-12-19T00:27:13.956Z,28.98
2018-12-19T00:29:20.908Z,29.52
2018-12-19T00:31:28.803Z,29.45
2018-12-19T00:33:37.554Z,29.42
2018-12-19T00:35:46.622Z,29.76
2018-12-19T00:37:59.035Z,29.29
2018-12-19T00:44:32.455Z,30.37
2018-12-19T00:49:05.051Z,30.45
2018-12-19T00:51:16.043Z,30.32
2018-12-19T00:53:23.390Z,30.18
2018-12-19T00:55:30.176Z,29.80
2018-12-19T00:59:51.893Z,30.91
2018-12-19T01:02:07.988Z,31.37
2018-12-19T01:04:15.365Z,30.96
2018-12-19T01:06:23.114Z,31.10
2018-12-19T01:08:34.316Z,31.46
2018-12-19T01:13:08.555Z,31.36
2018-12-19T01:15:16.230Z,30.89
2018-12-19T01:17:23.834Z,31.11
2018-12-19T01:19:31.728Z,30.77
2018-12-19T01:23:51.600Z,30.66
2018-12-19T01:26:03.355Z,30.53
2018-12-19T01:32:40.042Z,30.90
2018-12-19T01:34:49.174Z,31.27
2018-12-19T01:36:57.648Z,30.94
2018-12-19T01:39:05.996Z,30.89
2018-12-19T01:41:22.353Z,30.89
2018-12-19T01:45:48.312Z,30.63
2018-12-19T01:47:56.984Z,30.74
2018-12-19T01:54:55.089Z,30.02
2018-12-19T01:59:16.754Z,30.90
2018-12-19T02:03:45.739Z,30.94
2018-12-19T02:05:56.259Z,30.87
2018-12-19T02:12:35.624Z,30.81
2018-12-19T02:14:44.147Z,30.16
2018-12-19T02:16:54.330Z,30.69
2018-12-19T02:19:04.996Z,30.03
2018-12-19T02:21:13.821Z,29.88
2018-12-19T02:23:25.712Z,29.93
2018-12-19T02:27:48.657Z,30.39
2018-12-19T02:29:57.443Z,30.26
2018-12-19T02:32:12.039Z,30.40
2018-12-19T02:34:20.947Z,30.24
2018-12-19T02:36:28.552Z,29.95
2018-12-19T02:40:48.698Z,30.28
2018-12-19T02:42:58.347Z,30.28
2018-12-19T02:45:06.461Z,30.09
2018-12-19T02:47:15.879Z,29.62
2018-12-19T02:49:24.396Z,29.78
2018-12-19T02:51:35.848Z,30.22
2018-12-19T02:53:43.431Z,29.76
2018-12-19T02:58:11.663Z,29.99
2018-12-19T03:00:20.047Z,30.49
2018-12-19T03:02:33.667Z,29.94
2018-12-19T03:04:42.374Z,30.59
2018-12-19T03:06:51.976Z,30.39
2018-12-19T03:11:13.969Z,30.60
2018-12-19T03:15:34.595Z,30.25
2018-12-19T03:17:43.116Z,30.97
2018-12-19T03:19:54.493Z,30.68
2018-12-19T03:22:03.863Z,30.39
2018-12-19T03:24:12.928Z,30.55
2018-12-19T03:26:20.298Z,30.59
2018-12-19T03:30:39.776Z,30.77
2018-12-19T03:35:00.486Z,31.27
2018-12-19T03:37:10.506Z,31.48
2018-12-19T03:39:22.260Z,31.68
2018-12-19T03:41:32.722Z,30.85
2018-12-19T03:43:41.270Z,32.96
2018-12-19T03:45:49.627Z,32.66
2018-12-19T03:47:56.954Z,32.38
2018-12-19T03:50:07.213Z,31.30
2018-12-19T03:52:14.133Z,32.12
2018-12-19T03:54:21.024Z,31.68
2018-12-19T03:56:27.926Z,31.38
2018-12-19T03:58:35.195Z,31.15
2018-12-19T04:00:42.250Z,31.25
2018-12-19T04:02:49.373Z,32.38
2018-12-19T04:04:56.341Z,30.76
2018-12-19T04:07:03.034Z,31.98
2018-12-19T04:09:10.499Z,31.17
2018-12-19T04:11:17.366Z,31.40
2018-12-19T04:13:24.462Z,31.29
2018-12-19T04:15:31.381Z,31.14
2018-12-19T04:17:38.075Z,31.48
2018-12-19T04:19:45.105Z,31.85
2018-12-19T04:21:52.026Z,31.29
2018-12-19T04:23:59.140Z,31.97
2018-12-19T04:26:05.989Z,31.84
2018-12-19T04:28:12.768Z,31.42
2018-12-19T04:30:19.780Z,32.18
2018-12-19T04:32:27.095Z,32.39
2018-12-19T04:34:33.987Z,32.19
2018-12-19T04:36:40.888Z,32.15
2018-12-19T04:38:48.052Z,33.05
2018-12-19T04:40:54.990Z,32.00
2018-12-19T04:43:01.875Z,33.10
2018-12-19T04:45:09.386Z,33.17
2018-12-19T04:47:16.257Z,33.05
2018-12-19T04:49:23.560Z,33.20
2018-12-19T04:51:30.469Z,32.68
2018-12-19T04:53:37.630Z,33.42
2018-12-19T04:55:44.855Z,33.54
2018-12-19T04:57:51.911Z,32.89
2018-12-19T04:59:58.900Z,33.37
2018-12-19T05:02:05.798Z,33.37
2018-12-19T05:04:12.363Z,33.19
2018-12-19T05:06:19.669Z,33.38
2018-12-19T05:08:26.477Z,33.18
2018-12-19T05:10:33.192Z,32.30
2018-12-19T05:12:39.716Z,32.08
2018-12-19T05:14:46.937Z,32.05
2018-12-19T05:16:54.072Z,32.33
2018-12-19T05:19:00.846Z,32.37
2018-12-19T05:21:07.846Z,32.04
2018-12-19T05:23:14.697Z,32.25
2018-12-19T05:25:21.677Z,32.70
2018-12-19T05:27:28.546Z,31.88
2018-12-19T05:29:35.516Z,33.36
2018-12-19T05:31:42.456Z,31.50
2018-12-19T05:33:49.272Z,31.55
2018-12-19T05:35:56.274Z,31.50
2018-12-19T05:38:03.066Z,31.74
2018-12-19T05:40:10.757Z,31.28
2018-12-19T05:42:17.627Z,32.18
2018-12-19T05:44:24.484Z,31.78
2018-12-19T05:46:31.261Z,30.97
2018-12-19T05:48:38.162Z,30.89
2018-12-19T05:50:45.120Z,31.72
2018-12-19T05:52:52.055Z,31.13
2018-12-19T05:54:59.169Z,31.59
2018-12-19T05:57:06.306Z,30.98
2018-12-19T05:59:13.062Z,31.22
2018-12-19T06:01:19.917Z,30.73
2018-12-19T06:03:26.747Z,31.11
2018-12-19T06:05:34.302Z,30.75
2018-12-19T06:07:40.827Z,31.24
2018-12-19T06:09:47.979Z,30.95
2018-12-19T06:11:54.731Z,31.42
2018-12-19T06:14:01.584Z,31.60
2018-12-19T06:16:17.443Z,31.87
2018-12-19T06:18:24.110Z,32.14
2018-12-19T06:20:31.233Z,31.92
2018-12-19T06:22:38.097Z,31.51
2018-12-19T06:24:45.581Z,32.20
2018-12-19T06:26:52.320Z,32.11
2018-12-19T06:28:58.982Z,31.87
2018-12-19T06:31:05.838Z,32.41
2018-12-19T06:33:12.888Z,31.83
2018-12-19T06:35:19.941Z,33.05
2018-12-19T06:37:26.924Z,32.38
2018-12-19T06:39:33.683Z,33.69
2018-12-19T06:41:40.561Z,33.01
2018-12-19T06:43:47.238Z,33.54
2018-12-19T06:45:53.962Z,32.38
2018-12-19T06:48:00.892Z,32.55
2018-12-19T06:50:08.785Z,32.08
2018-12-19T06:52:15.894Z,33.10
2018-12-19T06:54:22.735Z,32.64
2018-12-19T06:56:29.486Z,32.38
2018-12-19T06:58:36.575Z,33.15
2018-12-19T07:00:43.456Z,33.47
2018-12-19T07:02:50.146Z,33.26
2018-12-19T07:04:56.825Z,32.61
2018-12-19T07:07:03.644Z,32.20
2018-12-19T07:09:11.185Z,32.75
2018-12-19T07:11:18.155Z,31.75
2018-12-19T07:13:24.861Z,32.13
2018-12-19T07:15:31.713Z,33.02
2018-12-19T07:17:38.470Z,32.13
2018-12-19T07:19:45.198Z,31.62
2018-12-19T07:21:52.242Z,32.19
2018-12-19T07:23:59.298Z,32.92
2018-12-19T07:26:06.146Z,32.84
2018-12-19T07:28:12.452Z,33.49
2018-12-19T07:30:19.378Z,32.64
2018-12-19T07:32:26.369Z,32.75
2018-12-19T07:34:33.465Z,32.86
2018-12-19T07:36:40.536Z,32.58
2018-12-19T07:38:47.403Z,33.30
2018-12-19T07:40:54.424Z,32.77
2018-12-19T07:43:01.475Z,33.26
2018-12-19T08:38:54.673Z,34.54
2018-12-19T08:41:02.496Z,34.79
2018-12-19T08:43:09.346Z,35.19
2018-12-19T08:45:17.240Z,35.21
2018-12-19T08:47:24.073Z,35.40
2018-12-19T08:49:31.045Z,35.56
2018-12-19T08:51:38.413Z,35.05
2018-12-19T08:53:45.075Z,35.48
2018-12-19T08:55:51.961Z,35.06
2018-12-19T08:57:59.037Z,34.69
2018-12-19T09:00:06.285Z,33.91
2018-12-19T09:02:12.968Z,34.84
2018-12-19T09:04:25.673Z,34.18
2018-12-19T09:06:29.066Z,34.06
2018-12-19T09:08:35.978Z,33.92
2018-12-19T09:10:42.817Z,33.75
2018-12-19T09:12:49.626Z,33.84
2018-12-19T09:14:58.103Z,34.14
2018-12-19T09:17:05.349Z,33.67
2018-12-19T09:19:12.017Z,33.35
2018-12-19T09:21:18.713Z,32.93
2018-12-19T09:23:25.640Z,34.00
2018-12-19T09:25:32.363Z,33.65
2018-12-19T09:27:39.201Z,34.25
2018-12-19T09:29:46.486Z,34.40
2018-12-19T09:31:53.265Z,34.35
2018-12-19T09:34:00.030Z,34.58
2018-12-19T09:36:06.842Z,34.78
2018-12-19T09:38:13.614Z,35.30
2018-12-19T09:40:21.453Z,35.19
2018-12-19T09:42:28.257Z,34.97
2018-12-19T09:44:35.263Z,34.80
2018-12-19T09:46:42.009Z,35.16
2018-12-19T09:48:48.898Z,34.45
2018-12-19T09:50:55.941Z,34.07
2018-12-19T09:53:02.806Z,34.07
2018-12-19T09:55:09.929Z,34.78
2018-12-19T09:57:16.679Z,33.36
2018-12-19T09:59:23.415Z,34.45
2018-12-19T10:01:30.278Z,33.26
2018-12-19T10:03:37.067Z,33.42
2018-12-19T10:05:44.170Z,34.05
2018-12-19T10:07:51.028Z,32.56
2018-12-19T10:09:57.809Z,33.11
2018-12-19T10:12:04.621Z,33.11
2018-12-19T10:14:11.420Z,33.33
2018-12-19T10:16:18.295Z,32.78
2018-12-19T10:18:25.418Z,31.99
2018-12-19T10:20:32.078Z,32.23
2018-12-19T10:22:38.641Z,32.73
2018-12-19T10:24:50.102Z,33.73
2018-12-19T10:26:56.841Z,33.67
2018-12-19T10:29:03.735Z,34.17
2018-12-19T10:31:10.693Z,33.98
2018-12-19T10:33:17.726Z,34.25
2018-12-19T10:35:25.661Z,34.01
2018-12-19T10:37:32.317Z,34.96
2018-12-19T10:39:39.201Z,34.37
2018-12-19T10:41:46.069Z,34.82
2018-12-19T10:43:52.960Z,35.15
2018-12-19T10:46:00.032Z,35.19
2018-12-19T10:48:06.826Z,34.77
2018-12-19T10:50:13.998Z,34.75
2018-12-19T10:52:21.090Z,34.23
2018-12-19T10:54:28.028Z,34.61
2018-12-19T10:56:35.011Z,34.41
2018-12-19T10:58:41.957Z,34.80
2018-12-19T11:00:53.350Z,34.93
2018-12-19T11:03:01.890Z,35.00
2018-12-19T11:05:08.670Z,35.31
2018-12-19T11:07:15.485Z,34.33
2018-12-19T11:09:22.312Z,34.78
2018-12-19T11:11:32.285Z,34.09
2018-12-19T11:13:38.262Z,34.50
2018-12-19T11:15:45.008Z,34.23
2018-12-19T11:17:51.937Z,34.98
2018-12-19T11:19:59.142Z,33.95
2018-12-19T11:22:07.886Z,34.46
2018-12-19T11:24:14.558Z,34.07
2018-12-19T11:26:21.350Z,33.81
2018-12-19T11:28:28.107Z,34.16
2018-12-19T11:30:35.066Z,33.22
2018-12-19T11:32:41.970Z,33.06
2018-12-19T11:34:48.822Z,32.68
2018-12-19T11:36:55.646Z,33.51
2018-12-19T11:39:02.482Z,32.45
2018-12-19T11:41:15.979Z,31.76
2018-12-19T11:43:22.597Z,32.73
2018-12-19T11:45:29.498Z,32.72
2018-12-19T11:47:36.125Z,32.54
2018-12-19T11:49:43.030Z,32.78
2018-12-19T11:51:49.818Z,32.53
2018-12-19T11:53:56.839Z,34.04
2018-12-19T11:56:03.831Z,33.54
2018-12-19T11:58:10.898Z,33.73
2018-12-19T12:00:17.871Z,33.82
2018-12-19T12:02:24.558Z,33.49
2018-12-19T12:04:31.478Z,33.67
2018-12-19T12:06:38.378Z,33.76
2018-12-19T12:08:45.442Z,33.86
2018-12-19T12:10:52.050Z,34.53
2018-12-19T12:12:59.175Z,33.71
2018-12-19T12:15:06.454Z,34.79
2018-12-19T12:17:13.179Z,34.90
2018-12-19T12:19:19.847Z,33.93
2018-12-19T12:21:26.817Z,34.43
2018-12-19T12:23:33.705Z,35.02
2018-12-19T12:25:40.542Z,34.07
2018-12-19T12:27:47.433Z,33.07
2018-12-19T12:29:54.298Z,32.83
2018-12-19T12:32:01.271Z,33.19
2018-12-19T12:34:08.857Z,32.85
2018-12-19T12:36:16.028Z,32.63
2018-12-19T12:38:22.885Z,32.24
2018-12-19T12:40:29.698Z,32.16
2018-12-19T12:42:36.303Z,32.94
2018-12-19T12:44:43.253Z,32.15
2018-12-19T12:46:50.174Z,32.65
2018-12-19T12:48:57.101Z,32.87
2018-12-19T12:51:04.519Z,31.97
2018-12-19T12:53:11.402Z,31.85
2018-12-19T12:55:18.393Z,31.51
2018-12-19T12:57:25.143Z,32.29
2018-12-19T12:59:32.386Z,31.85
2018-12-19T13:01:39.642Z,32.25
2018-12-19T13:03:46.358Z,31.65
2018-12-19T13:05:53.231Z,31.40
2018-12-19T13:08:00.016Z,31.80
2018-12-19T13:10:07.202Z,31.04
2018-12-19T13:12:14.005Z,31.49
2018-12-19T13:14:21.053Z,31.21
2018-12-19T13:16:28.054Z,31.42
2018-12-19T13:18:34.750Z,30.66
2018-12-19T13:20:41.673Z,32.10
2018-12-19T13:22:48.390Z,31.65
2018-12-19T13:24:55.153Z,31.34
2018-12-19T13:27:02.434Z,31.18
2018-12-19T13:29:09.329Z,31.69
2018-12-19T13:31:16.345Z,32.00
2018-12-19T13:33:23.133Z,31.99
2018-12-19T13:35:29.802Z,32.05
2018-12-19T13:37:36.366Z,32.84
2018-12-19T13:39:43.323Z,32.39
2018-12-19T13:41:50.134Z,32.72
2018-12-19T13:43:56.987Z,32.71
2018-12-19T13:46:03.826Z,33.19
2018-12-19T13:48:10.659Z,33.53
2018-12-19T13:50:17.761Z,32.42
2018-12-19T13:52:24.639Z,32.48
2018-12-19T13:54:31.577Z,32.12
2018-12-19T13:56:38.588Z,32.96
2018-12-19T13:58:45.613Z,35.15
2018-12-19T14:00:52.644Z,33.18
2018-12-19T14:02:59.481Z,33.04
2018-12-19T14:05:06.667Z,35.15
2018-12-19T14:07:13.522Z,32.83
2018-12-19T14:09:20.085Z,33.83
2018-12-19T14:11:26.742Z,33.12
2018-12-19T14:13:33.877Z,33.27
2018-12-19T14:15:41.243Z,35.48
2018-12-19T14:17:48.150Z,34.32
2018-12-19T14:19:55.379Z,35.75
2018-12-19T14:22:02.384Z,36.73
2018-12-19T14:24:09.163Z,34.73
2018-12-19T14:26:16.159Z,35.56
2018-12-19T14:28:23.153Z,36.13
2018-12-19T14:30:29.894Z,35.45
2018-12-19T14:32:36.304Z,37.16
2018-12-19T14:34:43.426Z,35.50
2018-12-19T14:36:52.222Z,35.14
2018-12-19T14:38:59.178Z,36.08
2018-12-19T14:41:06.113Z,35.68
2018-12-19T14:43:13.063Z,37.11
2018-12-19T14:45:20.317Z,36.35
2018-12-19T14:47:27.192Z,36.66
2018-12-19T14:49:34.164Z,35.91
2018-12-19T14:51:40.911Z,35.45
2018-12-19T14:53:47.575Z,34.54
2018-12-19T14:55:54.617Z,34.96
2018-12-19T14:58:01.496Z,33.64
2018-12-19T15:00:09.275Z,34.69
2018-12-19T15:02:16.247Z,33.88
2018-12-19T15:04:23.391Z,33.43
2018-12-19T15:06:30.246Z,33.47
2018-12-19T15:08:37.058Z,33.73
2018-12-19T15:10:44.328Z,33.73
2018-12-19T15:12:51.038Z,34.32
2018-12-19T15:14:57.941Z,33.67
2018-12-19T15:17:04.805Z,34.34
2018-12-19T15:19:11.514Z,34.15
2018-12-19T15:21:18.474Z,33.53
2018-12-19T15:23:25.513Z,34.16
2018-12-19T15:25:32.143Z,33.85
2018-12-19T15:27:38.620Z,34.23
2018-12-19T15:29:45.903Z,34.27
2018-12-19T15:31:52.606Z,33.36
2018-12-19T15:33:59.389Z,33.70
2018-12-19T15:36:06.458Z,34.05
2018-12-19T15:38:13.358Z,33.06
2018-12-19T15:40:21.137Z,33.54
2018-12-19T15:42:32.505Z,33.35
2018-12-19T15:44:37.385Z,33.44
2018-12-19T15:46:44.190Z,32.79
2018-12-19T15:48:51.101Z,33.04
2018-12-19T15:50:58.057Z,32.15
2018-12-19T15:53:04.738Z,33.37
2018-12-19T15:55:11.485Z,33.41
2018-12-19T15:57:18.186Z,33.09
2018-12-19T15:59:25.020Z,33.87
2018-12-19T16:01:32.351Z,33.29
2018-12-19T16:03:39.267Z,33.28
2018-12-19T16:05:46.282Z,33.77
2018-12-19T16:07:53.184Z,33.86
2018-12-19T16:10:00.022Z,33.85
2018-12-19T16:12:06.814Z,34.51
2018-12-19T16:14:13.706Z,34.21
2018-12-19T16:16:20.962Z,34.60
2018-12-19T16:18:27.769Z,35.03
2018-12-19T16:20:34.471Z,33.87
2018-12-19T16:22:42.028Z,34.75
2018-12-19T16:24:49.260Z,34.77
2018-12-19T16:26:56.242Z,35.42
2018-12-19T16:29:03.017Z,35.56
2018-12-19T16:31:09.757Z,34.92
2018-12-19T16:33:16.842Z,33.31
2018-12-19T16:35:23.989Z,33.30
2018-12-19T16:37:30.691Z,32.96
2018-12-19T16:39:37.626Z,32.97
2018-12-19T16:41:44.825Z,33.68
2018-12-19T16:43:51.760Z,33.27
2018-12-19T16:48:25.426Z,33.25
2018-12-19T16:50:32.197Z,33.46
2018-12-19T16:52:38.931Z,32.86
2018-12-19T16:54:45.745Z,32.67
2018-12-19T16:56:52.639Z,32.68
2018-12-19T16:58:59.334Z,32.28
2018-12-19T17:01:06.085Z,32.39
2018-12-19T17:03:12.956Z,32.47
2018-12-19T17:05:20.113Z,32.26
2018-12-19T17:07:27.004Z,32.87
2018-12-19T17:09:34.105Z,35.59
2018-12-19T17:11:40.796Z,34.20
2018-12-19T17:13:47.976Z,34.19
2018-12-19T17:15:55.058Z,32.20
2018-12-19T17:18:01.971Z,32.16
2018-12-19T17:20:09.836Z,32.50
2018-12-19T17:22:18.224Z,32.89
2018-12-19T17:24:29.023Z,32.82
2018-12-19T17:26:36.436Z,32.69
2018-12-19T17:28:43.551Z,32.47
2018-12-19T17:30:50.388Z,33.25
2018-12-19T17:32:57.559Z,33.07
2018-12-19T17:35:04.522Z,32.82
2018-12-19T17:37:11.837Z,33.27
2018-12-19T17:39:19.370Z,33.72
2018-12-19T17:41:26.289Z,33.32
2018-12-19T17:43:33.086Z,33.75
2018-12-19T17:45:40.233Z,33.24
2018-12-19T17:47:47.065Z,34.06
2018-12-19T17:49:54.206Z,33.13
2018-12-19T17:52:01.372Z,33.14
2018-12-19T17:54:08.409Z,33.53
2018-12-19T17:56:15.352Z,33.93
2018-12-19T17:58:22.510Z,33.35
2018-12-19T18:00:29.786Z,33.17
2018-12-19T18:02:36.672Z,32.75
2018-12-19T18:04:43.969Z,32.95
2018-12-19T18:06:50.866Z,33.29
2018-12-19T18:08:57.876Z,33.57
2018-12-19T18:11:04.646Z,33.35
2018-12-19T18:13:14.142Z,33.58
2018-12-19T18:15:21.816Z,33.73
2018-12-19T18:17:28.502Z,33.84
2018-12-19T18:19:35.191Z,33.38
2018-12-19T18:21:41.976Z,32.85
2018-12-19T18:23:49.034Z,32.88
2018-12-19T18:25:55.901Z,32.86
2018-12-19T18:28:02.704Z,33.16
2018-12-19T18:30:10.311Z,33.75
2018-12-19T18:32:17.167Z,33.84
2018-12-19T18:34:24.093Z,34.20
2018-12-19T18:36:30.734Z,33.95
2018-12-19T18:38:37.651Z,33.74
2018-12-19T18:40:44.854Z,32.63
2018-12-19T18:42:51.713Z,32.14
2018-12-19T18:44:58.441Z,32.80
2018-12-19T18:47:04.931Z,31.40
2018-12-19T18:49:15.183Z,32.14
2018-12-19T18:51:21.946Z,32.10
2018-12-19T18:53:28.589Z,31.35
2018-12-19T18:55:37.105Z,31.62
2018-12-19T18:57:43.877Z,31.68
2018-12-19T18:59:50.660Z,31.97
2018-12-19T19:01:57.497Z,32.62
2018-12-19T19:04:04.183Z,32.04
2018-12-19T19:06:11.143Z,32.74
2018-12-19T19:08:17.859Z,32.44
2018-12-19T19:10:24.492Z,32.52
2018-12-19T19:12:31.293Z,32.65
2018-12-19T19:14:37.880Z,33.07
2018-12-19T19:16:45.061Z,33.03
2018-12-19T19:18:52.186Z,32.80
2018-12-19T19:20:58.556Z,33.37
2018-12-19T19:23:05.157Z,32.89
2018-12-19T19:25:12.255Z,33.05
2018-12-19T19:27:26.573Z,33.50
2018-12-19T19:29:34.262Z,33.32
2018-12-19T19:31:41.009Z,33.03
2018-12-19T19:33:47.591Z,33.52
2018-12-19T19:35:54.579Z,33.26
2018-12-19T19:38:01.929Z,33.65
2018-12-19T19:40:10.114Z,33.65
2018-12-19T19:42:16.693Z,33.21
2018-12-19T19:44:23.434Z,33.65
2018-12-19T19:46:30.334Z,33.24
2018-12-19T19:48:37.075Z,33.52
2018-12-19T19:50:43.709Z,33.38
2018-12-19T19:52:50.700Z,33.74
2018-12-19T19:54:57.513Z,34.31
2018-12-19T19:57:04.283Z,34.34
2018-12-19T19:59:11.087Z,34.17
2018-12-19T20:01:17.747Z,33.72
2018-12-19T20:03:24.601Z,34.15
2018-12-19T20:05:31.549Z,33.89
2018-12-19T20:07:38.199Z,33.56
2018-12-19T20:09:45.045Z,34.69
2018-12-19T20:11:51.653Z,34.32
2018-12-19T20:13:58.881Z,34.36
2018-12-19T20:16:05.525Z,34.31
2018-12-19T20:18:13.927Z,34.47
2018-12-19T20:20:20.852Z,34.62
2018-12-19T20:22:27.634Z,34.02
2018-12-19T20:24:34.782Z,33.63
2018-12-19T20:26:41.680Z,33.61
2018-12-19T20:28:48.326Z,34.64
2018-12-19T20:30:54.997Z,34.56
2018-12-19T20:33:01.737Z,34.98
2018-12-19T20:35:08.625Z,34.16
2018-12-19T20:37:15.455Z,34.38
2018-12-19T20:39:22.389Z,35.40
2018-12-19T20:41:29.202Z,34.38
2018-12-19T20:43:39.922Z,34.44
2018-12-19T20:45:45.113Z,34.84
2018-12-19T20:47:52.062Z,35.44
2018-12-19T20:49:59.098Z,35.78
2018-12-19T20:52:06.210Z,33.74
2018-12-19T20:54:12.800Z,34.00
2018-12-19T20:56:19.577Z,34.12
2018-12-19T20:58:26.204Z,33.00
2018-12-19T21:00:33.059Z,33.22
2018-12-19T21:02:39.722Z,34.57
2018-12-19T21:04:46.515Z,33.95
2018-12-19T21:06:53.420Z,33.97
2018-12-19T21:09:00.082Z,32.94
2018-12-19T21:11:07.057Z,33.82
2018-12-19T21:13:14.197Z,32.49
2018-12-19T21:15:20.999Z,32.95
2018-12-19T21:17:32.303Z,33.11
2018-12-19T21:19:39.067Z,34.52
2018-12-19T21:21:45.790Z,33.63
2018-12-19T21:23:52.763Z,33.69
2018-12-19T21:25:59.513Z,34.63
2018-12-19T21:28:06.681Z,34.41
2018-12-19T21:30:14.215Z,35.09
2018-12-19T21:32:20.985Z,34.18
2018-12-19T21:34:27.813Z,34.62
2018-12-19T21:36:34.788Z,34.46
2018-12-19T21:38:41.463Z,35.51
2018-12-19T21:40:47.960Z,34.95
2018-12-19T21:42:54.856Z,34.92
2018-12-19T21:45:03.434Z,35.70
2018-12-19T21:47:10.448Z,34.25
2018-12-19T21:49:17.217Z,35.37
2018-12-19T21:51:23.661Z,34.95
2018-12-19T21:53:30.868Z,35.37
2018-12-19T21:55:37.687Z,34.62
2018-12-19T21:57:44.208Z,35.35
2018-12-19T21:59:50.665Z,33.83
2018-12-19T22:01:57.348Z,34.13
2018-12-19T22:04:03.865Z,34.57
2018-12-19T22:06:10.329Z,33.13
2018-12-19T22:08:16.796Z,33.96
2018-12-19T22:10:23.347Z,32.94
2018-12-19T22:12:30.140Z,33.37
2018-12-19T22:14:36.777Z,33.54
2018-12-19T22:16:47.924Z,33.82
2018-12-19T22:18:54.560Z,33.46
2018-12-19T22:21:01.330Z,32.40
2018-12-19T22:23:08.002Z,32.75
2018-12-19T22:25:14.611Z,33.89
2018-12-19T22:27:21.164Z,33.60
2018-12-19T22:29:28.518Z,33.93
2018-12-19T22:31:35.206Z,33.70
2018-12-19T22:33:41.906Z,34.08
2018-12-19T22:38:16.457Z,33.96
2018-12-19T22:40:23.045Z,33.29
2018-12-19T22:42:29.843Z,33.05
2018-12-19T22:44:36.647Z,32.57
2018-12-19T22:46:43.723Z,32.87
2018-12-19T22:48:50.539Z,33.07
2018-12-19T22:50:57.156Z,32.87
2018-12-19T22:53:04.235Z,33.37
2018-12-19T22:55:11.044Z,33.78
2018-12-19T22:57:17.538Z,34.39
2018-12-19T22:59:24.286Z,34.02
2018-12-19T23:01:35.669Z,34.73
2018-12-19T23:03:47.543Z,34.07
2018-12-19T23:05:54.579Z,34.39
2018-12-19T23:08:01.027Z,34.64
2018-12-19T23:10:07.875Z,35.27
2018-12-19T23:12:14.825Z,34.67
2018-12-19T23:14:21.433Z,34.56
2018-12-19T23:16:28.024Z,35.46
2018-12-19T23:18:38.580Z,35.23
2018-12-19T23:20:45.312Z,35.30
2018-12-19T23:22:52.064Z,33.42
2018-12-19T23:24:59.147Z,33.79
2018-12-19T23:27:05.738Z,33.53
2018-12-19T23:29:12.408Z,34.15
2018-12-19T23:31:19.035Z,32.89
2018-12-19T23:33:26.103Z,33.26
2018-12-19T23:35:32.866Z,32.89
2018-12-19T23:37:39.362Z,33.28
2018-12-19T23:39:46.079Z,32.53
2018-12-19T23:41:52.704Z,33.13
2018-12-19T23:43:59.525Z,32.86
2018-12-19T23:46:06.309Z,32.55
2018-12-19T23:48:12.630Z,33.03
2018-12-19T23:50:19.639Z,32.92
2018-12-19T23:52:26.304Z,32.76
2018-12-19T23:54:32.703Z,32.37
2018-12-19T23:56:39.588Z,33.39
2018-12-19T23:58:46.414Z,32.70
